sensor_id;sensor_type;location;lat;lon;timestamp;temperature;humidity
34360;DHT22;20624;55.870;26.506;2023-01-19T00:01:06;6.10;99.90
34360;DHT22;20624;55.870;26.506;2023-01-19T00:03:34;5.70;99.90
34360;DHT22;20624;55.870;26.506;2023-01-19T00:11:02;5.40;99.90
34360;DHT22;20624;55.870;26.506;2023-01-19T00:13:30;5.30;99.90
34360;DHT22;20624;55.870;26.506;2023-01-19T00:15:57;5.20;99.90
34360;DHT22;20624;55.870;26.506;2023-01-19T00:18:25;5.20;99.90
34360;DHT22;20624;55.870;26.506;2023-01-19T00:28:18;7.20;99.90
34360;DHT22;20624;55.870;26.506;2023-01-19T00:33:14;4.90;99.90
34360;DHT22;20624;55.870;26.506;2023-01-19T00:50:32;4.40;99.90
34360;DHT22;20624;55.870;26.506;2023-01-19T00:55:29;4.50;99.90
34360;DHT22;20624;55.870;26.506;2023-01-19T01:00:25;4.30;99.90
34360;DHT22;20624;55.870;26.506;2023-01-19T01:07:48;3.90;99.90
34360;DHT22;20624;55.870;26.506;2023-01-19T01:10:19;3.50;99.90
34360;DHT22;20624;55.870;26.506;2023-01-19T01:22:51;3.40;99.90
34360;DHT22;20624;55.870;26.506;2023-01-19T01:25:20;3.40;99.90
34360;DHT22;20624;55.870;26.506;2023-01-19T01:32:46;3.30;99.90
34360;DHT22;20624;55.870;26.506;2023-01-19T01:37:43;3.20;99.90
34360;DHT22;20624;55.870;26.506;2023-01-19T01:40:13;3.20;99.90
34360;DHT22;20624;55.870;26.506;2023-01-19T01:42:41;3.20;99.90
34360;DHT22;20624;55.870;26.506;2023-01-19T01:50:32;3.10;99.90
34360;DHT22;20624;55.870;26.506;2023-01-19T01:53:08;3.10;99.90
34360;DHT22;20624;55.870;26.506;2023-01-19T01:55:45;3.00;99.90
34360;DHT22;20624;55.870;26.506;2023-01-19T01:58:14;3.00;99.90
34360;DHT22;20624;55.870;26.506;2023-01-19T02:03:28;2.90;99.90
34360;DHT22;20624;55.870;26.506;2023-01-19T02:06:00;2.90;99.90
34360;DHT22;20624;55.870;26.506;2023-01-19T02:08:58;2.80;99.90
34360;DHT22;20624;55.870;26.506;2023-01-19T02:11:46;2.70;99.90
34360;DHT22;20624;55.870;26.506;2023-01-19T02:14:34;2.50;99.90
34360;DHT22;20624;55.870;26.506;2023-01-19T02:19:42;2.30;99.90
34360;DHT22;20624;55.870;26.506;2023-01-19T02:27:34;2.00;99.90
34360;DHT22;20624;55.870;26.506;2023-01-19T02:30:04;2.00;99.90
34360;DHT22;20624;55.870;26.506;2023-01-19T02:32:31;2.00;99.90
34360;DHT22;20624;55.870;26.506;2023-01-19T02:35:00;2.00;99.90
34360;DHT22;20624;55.870;26.506;2023-01-19T02:37:33;2.00;99.90
34360;DHT22;20624;55.870;26.506;2023-01-19T02:40:07;1.90;99.90
34360;DHT22;20624;55.870;26.506;2023-01-19T02:42:43;1.90;99.90
34360;DHT22;20624;55.870;26.506;2023-01-19T02:45:13;1.80;99.90
34360;DHT22;20624;55.870;26.506;2023-01-19T02:47:45;1.80;99.90
34360;DHT22;20624;55.870;26.506;2023-01-19T02:50:39;1.80;99.90
34360;DHT22;20624;55.870;26.506;2023-01-19T03:10:53;1.70;99.90
34360;DHT22;20624;55.870;26.506;2023-01-19T03:18:55;1.70;99.90
34360;DHT22;20624;55.870;26.506;2023-01-19T03:23:57;1.60;99.90
34360;DHT22;20624;55.870;26.506;2023-01-19T04:21:00;1.80;99.90
34360;DHT22;20624;55.870;26.506;2023-01-19T04:28:26;1.80;99.90
34360;DHT22;20624;55.870;26.506;2023-01-19T04:50:40;1.70;99.90
34360;DHT22;20624;55.870;26.506;2023-01-19T04:55:37;1.70;99.90
34360;DHT22;20624;55.870;26.506;2023-01-19T04:58:04;1.80;99.90
34360;DHT22;20624;55.870;26.506;2023-01-19T05:00:32;1.80;99.90
34360;DHT22;20624;55.870;26.506;2023-01-19T05:03:00;1.80;99.90
34360;DHT22;20624;55.870;26.506;2023-01-19T05:05:28;1.80;99.90
34360;DHT22;20624;55.870;26.506;2023-01-19T05:17:47;1.80;99.90
34360;DHT22;20624;55.870;26.506;2023-01-19T05:20:15;1.80;99.90
34360;DHT22;20624;55.870;26.506;2023-01-19T05:22:48;1.80;99.90
34360;DHT22;20624;55.870;26.506;2023-01-19T05:30:13;1.80;99.90
34360;DHT22;20624;55.870;26.506;2023-01-19T05:32:41;1.90;99.90
34360;DHT22;20624;55.870;26.506;2023-01-19T05:37:50;1.90;99.90
34360;DHT22;20624;55.870;26.506;2023-01-19T05:45:14;1.90;99.90
34360;DHT22;20624;55.870;26.506;2023-01-19T05:50:10;1.90;99.90
34360;DHT22;20624;55.870;26.506;2023-01-19T06:00:04;2.00;99.90
34360;DHT22;20624;55.870;26.506;2023-01-19T06:12:23;2.00;99.90
34360;DHT22;20624;55.870;26.506;2023-01-19T06:19:46;2.10;99.90
34360;DHT22;20624;55.870;26.506;2023-01-19T06:22:14;2.10;99.90
34360;DHT22;20624;55.870;26.506;2023-01-19T06:24:42;2.30;99.90
34360;DHT22;20624;55.870;26.506;2023-01-19T06:29:37;2.20;99.90
34360;DHT22;20624;55.870;26.506;2023-01-19T06:32:05;2.20;99.90
34360;DHT22;20624;55.870;26.506;2023-01-19T06:59:32;2.30;99.90
34360;DHT22;20624;55.870;26.506;2023-01-19T07:14:41;2.30;99.90
34360;DHT22;20624;55.870;26.506;2023-01-19T07:24:32;2.40;99.90
34360;DHT22;20624;55.870;26.506;2023-01-19T07:36:54;2.20;99.90
34360;DHT22;20624;55.870;26.506;2023-01-19T07:41:50;2.40;99.90
34360;DHT22;20624;55.870;26.506;2023-01-19T07:46:45;2.40;99.90
34360;DHT22;20624;55.870;26.506;2023-01-19T08:01:35;2.50;99.90
34360;DHT22;20624;55.870;26.506;2023-01-19T08:09:04;2.50;99.90
34360;DHT22;20624;55.870;26.506;2023-01-19T08:21:29;2.50;99.90
34360;DHT22;20624;55.870;26.506;2023-01-19T08:38:50;2.50;99.90
34360;DHT22;20624;55.870;26.506;2023-01-19T08:43:46;5.10;99.90
34360;DHT22;20624;55.870;26.506;2023-01-19T08:53:44;2.40;99.90
34360;DHT22;20624;55.870;26.506;2023-01-19T08:56:12;2.40;99.90
34360;DHT22;20624;55.870;26.506;2023-01-19T08:58:41;4.40;99.90
34360;DHT22;20624;55.870;26.506;2023-01-19T09:03:41;2.40;99.90
34360;DHT22;20624;55.870;26.506;2023-01-19T09:06:14;2.40;99.90
34360;DHT22;20624;55.870;26.506;2023-01-19T09:11:19;2.40;99.90
34360;DHT22;20624;55.870;26.506;2023-01-19T09:13:47;2.40;99.90
34360;DHT22;20624;55.870;26.506;2023-01-19T09:16:15;2.40;99.90
34360;DHT22;20624;55.870;26.506;2023-01-19T09:18:44;1.40;99.90
34360;DHT22;20624;55.870;26.506;2023-01-19T09:21:15;2.30;99.90
34360;DHT22;20624;55.870;26.506;2023-01-19T09:23:43;2.30;99.90
34360;DHT22;20624;55.870;26.506;2023-01-19T09:31:07;2.30;99.90
34360;DHT22;20624;55.870;26.506;2023-01-19T09:36:04;2.30;99.90
34360;DHT22;20624;55.870;26.506;2023-01-19T09:41:00;2.40;99.90
34360;DHT22;20624;55.870;26.506;2023-01-19T09:43:50;2.40;99.90
34360;DHT22;20624;55.870;26.506;2023-01-19T09:48:54;2.30;99.90
34360;DHT22;20624;55.870;26.506;2023-01-19T09:58:55;2.00;99.90
34360;DHT22;20624;55.870;26.506;2023-01-19T10:01:44;2.40;99.90
34360;DHT22;20624;55.870;26.506;2023-01-19T10:06:54;2.40;99.90
34360;DHT22;20624;55.870;26.506;2023-01-19T10:10:17;2.40;99.90
34360;DHT22;20624;55.870;26.506;2023-01-19T10:26:16;2.50;99.90
34360;DHT22;20624;55.870;26.506;2023-01-19T10:31:17;2.50;99.90
34360;DHT22;20624;55.870;26.506;2023-01-19T10:36:19;2.50;99.90
34360;DHT22;20624;55.870;26.506;2023-01-19T10:54:01;2.60;99.90
34360;DHT22;20624;55.870;26.506;2023-01-19T11:04:20;4.50;99.90
34360;DHT22;20624;55.870;26.506;2023-01-19T11:09:20;2.50;99.90
34360;DHT22;20624;55.870;26.506;2023-01-19T11:14:22;2.50;99.90
34360;DHT22;20624;55.870;26.506;2023-01-19T11:16:55;2.50;99.90
34360;DHT22;20624;55.870;26.506;2023-01-19T11:19:31;2.50;99.90
34360;DHT22;20624;55.870;26.506;2023-01-19T11:22:19;2.50;99.90
34360;DHT22;20624;55.870;26.506;2023-01-19T11:29:49;2.50;99.90
34360;DHT22;20624;55.870;26.506;2023-01-19T11:34:52;2.50;99.90
34360;DHT22;20624;55.870;26.506;2023-01-19T11:42:25;2.40;99.90
34360;DHT22;20624;55.870;26.506;2023-01-19T11:52:42;2.50;99.90
34360;DHT22;20624;55.870;26.506;2023-01-19T11:55:32;2.50;99.90
34360;DHT22;20624;55.870;26.506;2023-01-19T12:00:47;2.60;99.90
34360;DHT22;20624;55.870;26.506;2023-01-19T12:06:05;2.80;99.90
34360;DHT22;20624;55.870;26.506;2023-01-19T12:11:14;2.80;99.90
34360;DHT22;20624;55.870;26.506;2023-01-19T12:13:45;2.80;99.90
34360;DHT22;20624;55.870;26.506;2023-01-19T12:16:20;2.80;99.90
34360;DHT22;20624;55.870;26.506;2023-01-19T12:21:19;2.90;99.90
34360;DHT22;20624;55.870;26.506;2023-01-19T12:26:51;2.80;99.90
34360;DHT22;20624;55.870;26.506;2023-01-19T12:45:05;2.80;99.50
34360;DHT22;20624;55.870;26.506;2023-01-19T12:50:16;2.80;99.90
34360;DHT22;20624;55.870;26.506;2023-01-19T12:52:59;2.80;99.90
34360;DHT22;20624;55.870;26.506;2023-01-19T12:58:20;2.80;99.90
34360;DHT22;20624;55.870;26.506;2023-01-19T13:01:12;2.80;99.90
34360;DHT22;20624;55.870;26.506;2023-01-19T13:06:11;2.70;99.90
34360;DHT22;20624;55.870;26.506;2023-01-19T13:17:10;2.60;99.90
34360;DHT22;20624;55.870;26.506;2023-01-19T13:19:51;2.70;99.90
34360;DHT22;20624;55.870;26.506;2023-01-19T13:22:48;2.60;99.90
34360;DHT22;20624;55.870;26.506;2023-01-19T13:25:35;2.60;99.90
34360;DHT22;20624;55.870;26.506;2023-01-19T13:28:08;2.60;99.90
34360;DHT22;20624;55.870;26.506;2023-01-19T13:30:43;2.50;99.90
34360;DHT22;20624;55.870;26.506;2023-01-19T13:33:19;2.40;99.90
34360;DHT22;20624;55.870;26.506;2023-01-19T13:35:53;2.80;99.90
34360;DHT22;20624;55.870;26.506;2023-01-19T13:40:53;2.40;99.90
34360;DHT22;20624;55.870;26.506;2023-01-19T13:43:27;2.40;99.90
34360;DHT22;20624;55.870;26.506;2023-01-19T13:45:58;2.30;99.90
34360;DHT22;20624;55.870;26.506;2023-01-19T13:51:00;2.20;99.90
34360;DHT22;20624;55.870;26.506;2023-01-19T13:53:28;2.30;99.90
34360;DHT22;20624;55.870;26.506;2023-01-19T13:56:17;2.50;99.90
34360;DHT22;20624;55.870;26.506;2023-01-19T13:59:11;2.10;99.90
34360;DHT22;20624;55.870;26.506;2023-01-19T14:01:47;2.10;99.90
34360;DHT22;20624;55.870;26.506;2023-01-19T14:04:33;2.00;99.90
34360;DHT22;20624;55.870;26.506;2023-01-19T14:07:12;2.10;99.90
34360;DHT22;20624;55.870;26.506;2023-01-19T14:09:44;1.90;99.90
34360;DHT22;20624;55.870;26.506;2023-01-19T14:12:14;1.80;99.90
34360;DHT22;20624;55.870;26.506;2023-01-19T14:14:44;1.80;99.90
34360;DHT22;20624;55.870;26.506;2023-01-19T14:17:22;1.80;99.90
34360;DHT22;20624;55.870;26.506;2023-01-19T14:20:25;1.80;99.90
34360;DHT22;20624;55.870;26.506;2023-01-19T14:22:45;1.70;99.90
34360;DHT22;20624;55.870;26.506;2023-01-19T14:25:30;1.70;99.90
34360;DHT22;20624;55.870;26.506;2023-01-19T14:38:47;1.50;99.90
34360;DHT22;20624;55.870;26.506;2023-01-19T14:41:46;1.50;99.90
34360;DHT22;20624;55.870;26.506;2023-01-19T14:44:28;1.50;99.90
34360;DHT22;20624;55.870;26.506;2023-01-19T14:46:57;1.50;99.90
34360;DHT22;20624;55.870;26.506;2023-01-19T14:49:35;1.50;99.90
34360;DHT22;20624;55.870;26.506;2023-01-19T14:52:20;1.50;99.90
34360;DHT22;20624;55.870;26.506;2023-01-19T14:54:51;1.50;99.90
34360;DHT22;20624;55.870;26.506;2023-01-19T14:57:24;1.50;99.90
34360;DHT22;20624;55.870;26.506;2023-01-19T14:59:55;2.90;99.90
34360;DHT22;20624;55.870;26.506;2023-01-19T15:02:22;1.40;99.90
34360;DHT22;20624;55.870;26.506;2023-01-19T15:04:53;1.50;99.90
34360;DHT22;20624;55.870;26.506;2023-01-19T15:07:27;1.30;99.90
34360;DHT22;20624;55.870;26.506;2023-01-19T15:09:58;1.30;99.90
34360;DHT22;20624;55.870;26.506;2023-01-19T15:12:29;3.20;99.90
34360;DHT22;20624;55.870;26.506;2023-01-19T15:14:59;1.30;99.90
34360;DHT22;20624;55.870;26.506;2023-01-19T15:17:35;1.80;99.90
34360;DHT22;20624;55.870;26.506;2023-01-19T15:20:13;1.30;99.90
34360;DHT22;20624;55.870;26.506;2023-01-19T15:22:41;1.30;99.90
34360;DHT22;20624;55.870;26.506;2023-01-19T15:25:12;1.80;99.90
34360;DHT22;20624;55.870;26.506;2023-01-19T15:27:41;1.20;99.90
34360;DHT22;20624;55.870;26.506;2023-01-19T15:30:27;1.20;99.90
34360;DHT22;20624;55.870;26.506;2023-01-19T15:33:02;1.20;99.90
34360;DHT22;20624;55.870;26.506;2023-01-19T15:35:33;1.20;99.90
34360;DHT22;20624;55.870;26.506;2023-01-19T15:40:35;1.00;99.90
34360;DHT22;20624;55.870;26.506;2023-01-19T15:43:05;1.10;99.90
34360;DHT22;20624;55.870;26.506;2023-01-19T15:45:42;1.00;99.90
34360;DHT22;20624;55.870;26.506;2023-01-19T15:48:13;1.00;99.90
34360;DHT22;20624;55.870;26.506;2023-01-19T15:50:48;0.90;99.90
34360;DHT22;20624;55.870;26.506;2023-01-19T15:53:19;0.90;99.90
34360;DHT22;20624;55.870;26.506;2023-01-19T15:55:51;0.80;99.90
34360;DHT22;20624;55.870;26.506;2023-01-19T15:58:18;0.90;99.90
34360;DHT22;20624;55.870;26.506;2023-01-19T16:00:56;0.90;99.90
34360;DHT22;20624;55.870;26.506;2023-01-19T16:03:26;0.90;99.90
34360;DHT22;20624;55.870;26.506;2023-01-19T16:05:58;0.90;99.90
34360;DHT22;20624;55.870;26.506;2023-01-19T16:08:29;0.10;99.90
34360;DHT22;20624;55.870;26.506;2023-01-19T16:11:08;0.90;99.90
34360;DHT22;20624;55.870;26.506;2023-01-19T16:13:37;0.90;99.90
34360;DHT22;20624;55.870;26.506;2023-01-19T16:16:07;0.90;99.90
34360;DHT22;20624;55.870;26.506;2023-01-19T16:18:37;0.80;99.90
34360;DHT22;20624;55.870;26.506;2023-01-19T16:21:08;0.90;99.90
34360;DHT22;20624;55.870;26.506;2023-01-19T16:23:36;0.90;99.90
34360;DHT22;20624;55.870;26.506;2023-01-19T16:26:30;2.80;99.90
34360;DHT22;20624;55.870;26.506;2023-01-19T16:29:02;0.90;99.90
34360;DHT22;20624;55.870;26.506;2023-01-19T16:34:09;0.90;99.90
34360;DHT22;20624;55.870;26.506;2023-01-19T16:36:38;0.80;99.90
34360;DHT22;20624;55.870;26.506;2023-01-19T16:39:09;0.80;99.90
34360;DHT22;20624;55.870;26.506;2023-01-19T16:41:37;0.80;99.90
34360;DHT22;20624;55.870;26.506;2023-01-19T16:44:07;0.80;99.90
34360;DHT22;20624;55.870;26.506;2023-01-19T16:46:44;0.80;99.90
34360;DHT22;20624;55.870;26.506;2023-01-19T16:49:15;0.70;99.90
34360;DHT22;20624;55.870;26.506;2023-01-19T16:51:45;0.70;99.90
34360;DHT22;20624;55.870;26.506;2023-01-19T16:54:16;0.70;99.90
34360;DHT22;20624;55.870;26.506;2023-01-19T16:56:44;0.70;99.90
34360;DHT22;20624;55.870;26.506;2023-01-19T16:59:17;0.70;99.90
34360;DHT22;20624;55.870;26.506;2023-01-19T17:01:45;0.60;99.90
34360;DHT22;20624;55.870;26.506;2023-01-19T17:04:13;0.60;99.90
34360;DHT22;20624;55.870;26.506;2023-01-19T17:06:40;0.50;99.90
34360;DHT22;20624;55.870;26.506;2023-01-19T17:11:36;0.50;99.90
34360;DHT22;20624;55.870;26.506;2023-01-19T17:14:17;0.50;99.90
34360;DHT22;20624;55.870;26.506;2023-01-19T17:19:19;0.50;99.90
34360;DHT22;20624;55.870;26.506;2023-01-19T17:21:48;0.50;99.90
34360;DHT22;20624;55.870;26.506;2023-01-19T17:24:16;0.40;99.90
34360;DHT22;20624;55.870;26.506;2023-01-19T17:26:46;0.40;99.90
34360;DHT22;20624;55.870;26.506;2023-01-19T17:29:17;0.40;99.90
34360;DHT22;20624;55.870;26.506;2023-01-19T17:31:49;0.40;99.90
34360;DHT22;20624;55.870;26.506;2023-01-19T17:34:16;0.40;99.90
34360;DHT22;20624;55.870;26.506;2023-01-19T17:39:12;0.40;99.90
34360;DHT22;20624;55.870;26.506;2023-01-19T17:41:40;0.40;99.90
34360;DHT22;20624;55.870;26.506;2023-01-19T17:44:09;0.40;99.90
34360;DHT22;20624;55.870;26.506;2023-01-19T17:46:37;0.40;99.90
34360;DHT22;20624;55.870;26.506;2023-01-19T17:49:10;0.40;99.90
34360;DHT22;20624;55.870;26.506;2023-01-19T17:51:40;0.30;99.90
34360;DHT22;20624;55.870;26.506;2023-01-19T17:54:14;0.30;99.90
34360;DHT22;20624;55.870;26.506;2023-01-19T17:56:43;0.30;99.90
34360;DHT22;20624;55.870;26.506;2023-01-19T17:59:10;0.30;99.90
34360;DHT22;20624;55.870;26.506;2023-01-19T18:01:38;0.10;99.90
34360;DHT22;20624;55.870;26.506;2023-01-19T18:04:07;0.60;99.90
34360;DHT22;20624;55.870;26.506;2023-01-19T18:06:38;0.30;99.90
34360;DHT22;20624;55.870;26.506;2023-01-19T18:09:08;0.40;99.90
34360;DHT22;20624;55.870;26.506;2023-01-19T18:14:05;0.40;99.90
34360;DHT22;20624;55.870;26.506;2023-01-19T18:16:33;0.40;99.90
34360;DHT22;20624;55.870;26.506;2023-01-19T18:19:01;0.40;99.90
34360;DHT22;20624;55.870;26.506;2023-01-19T18:21:31;0.40;99.90
34360;DHT22;20624;55.870;26.506;2023-01-19T18:24:00;0.40;99.90
34360;DHT22;20624;55.870;26.506;2023-01-19T18:26:29;0.40;99.90
34360;DHT22;20624;55.870;26.506;2023-01-19T18:28:57;0.50;99.90
34360;DHT22;20624;55.870;26.506;2023-01-19T18:31:28;1.40;99.90
34360;DHT22;20624;55.870;26.506;2023-01-19T18:36:23;0.30;99.90
34360;DHT22;20624;55.870;26.506;2023-01-19T18:38:51;0.30;99.90
34360;DHT22;20624;55.870;26.506;2023-01-19T18:41:19;0.30;99.90
34360;DHT22;20624;55.870;26.506;2023-01-19T18:43:50;-0.20;99.90
34360;DHT22;20624;55.870;26.506;2023-01-19T18:46:19;0.30;99.90
34360;DHT22;20624;55.870;26.506;2023-01-19T18:48:52;0.30;99.90
34360;DHT22;20624;55.870;26.506;2023-01-19T18:51:25;0.30;99.90
34360;DHT22;20624;55.870;26.506;2023-01-19T18:53:52;0.30;99.90
34360;DHT22;20624;55.870;26.506;2023-01-19T18:56:20;0.30;99.90
34360;DHT22;20624;55.870;26.506;2023-01-19T18:58:50;0.30;99.90
34360;DHT22;20624;55.870;26.506;2023-01-19T19:01:28;0.30;99.90
34360;DHT22;20624;55.870;26.506;2023-01-19T19:04:01;0.30;99.90
34360;DHT22;20624;55.870;26.506;2023-01-19T19:06:29;0.30;99.90
34360;DHT22;20624;55.870;26.506;2023-01-19T19:08:59;0.30;99.90
34360;DHT22;20624;55.870;26.506;2023-01-19T19:11:33;0.30;99.90
34360;DHT22;20624;55.870;26.506;2023-01-19T19:14:02;0.30;99.90
34360;DHT22;20624;55.870;26.506;2023-01-19T19:16:35;0.20;99.90
34360;DHT22;20624;55.870;26.506;2023-01-19T19:19:05;0.30;99.90
34360;DHT22;20624;55.870;26.506;2023-01-19T19:21:34;0.20;99.90
34360;DHT22;20624;55.870;26.506;2023-01-19T19:24:08;0.30;99.90
34360;DHT22;20624;55.870;26.506;2023-01-19T19:26:39;0.20;99.90
34360;DHT22;20624;55.870;26.506;2023-01-19T19:29:11;0.20;99.90
34360;DHT22;20624;55.870;26.506;2023-01-19T19:31:41;0.20;99.90
34360;DHT22;20624;55.870;26.506;2023-01-19T19:34:12;0.30;99.90
34360;DHT22;20624;55.870;26.506;2023-01-19T19:36:43;0.20;99.90
34360;DHT22;20624;55.870;26.506;2023-01-19T19:39:10;0.20;99.90
34360;DHT22;20624;55.870;26.506;2023-01-19T19:41:41;0.20;99.90
34360;DHT22;20624;55.870;26.506;2023-01-19T19:44:11;0.20;99.90
34360;DHT22;20624;55.870;26.506;2023-01-19T19:46:42;0.20;99.90
34360;DHT22;20624;55.870;26.506;2023-01-19T19:49:12;0.20;99.90
34360;DHT22;20624;55.870;26.506;2023-01-19T19:51:39;0.20;99.90
34360;DHT22;20624;55.870;26.506;2023-01-19T19:54:10;0.20;99.90
34360;DHT22;20624;55.870;26.506;2023-01-19T19:56:38;0.20;99.90
34360;DHT22;20624;55.870;26.506;2023-01-19T19:59:08;0.30;99.90
34360;DHT22;20624;55.870;26.506;2023-01-19T20:01:39;0.10;99.90
34360;DHT22;20624;55.870;26.506;2023-01-19T20:04:13;0.30;99.90
34360;DHT22;20624;55.870;26.506;2023-01-19T20:06:46;0.30;99.90
34360;DHT22;20624;55.870;26.506;2023-01-19T20:09:15;0.30;99.90
34360;DHT22;20624;55.870;26.506;2023-01-19T20:11:44;0.30;99.90
34360;DHT22;20624;55.870;26.506;2023-01-19T20:14:13;0.30;99.90
34360;DHT22;20624;55.870;26.506;2023-01-19T20:19:09;0.30;99.90
34360;DHT22;20624;55.870;26.506;2023-01-19T20:21:42;0.30;99.90
34360;DHT22;20624;55.870;26.506;2023-01-19T20:24:14;0.20;99.90
34360;DHT22;20624;55.870;26.506;2023-01-19T20:26:48;0.40;99.90
34360;DHT22;20624;55.870;26.506;2023-01-19T20:29:21;0.40;99.90
34360;DHT22;20624;55.870;26.506;2023-01-19T20:31:51;0.40;99.90
34360;DHT22;20624;55.870;26.506;2023-01-19T20:34:26;0.40;99.90
34360;DHT22;20624;55.870;26.506;2023-01-19T20:36:54;0.40;99.90
34360;DHT22;20624;55.870;26.506;2023-01-19T20:39:28;0.40;99.90
34360;DHT22;20624;55.870;26.506;2023-01-19T20:42:04;0.60;99.90
34360;DHT22;20624;55.870;26.506;2023-01-19T20:47:06;0.40;99.90
34360;DHT22;20624;55.870;26.506;2023-01-19T20:49:35;0.40;99.90
34360;DHT22;20624;55.870;26.506;2023-01-19T20:52:06;0.40;99.90
34360;DHT22;20624;55.870;26.506;2023-01-19T20:54:38;0.40;99.90
34360;DHT22;20624;55.870;26.506;2023-01-19T20:59:37;0.50;99.90
34360;DHT22;20624;55.870;26.506;2023-01-19T21:02:09;0.50;99.90
34360;DHT22;20624;55.870;26.506;2023-01-19T21:04:42;0.50;99.90
34360;DHT22;20624;55.870;26.506;2023-01-19T21:07:10;0.50;99.90
34360;DHT22;20624;55.870;26.506;2023-01-19T21:09:38;0.50;99.90
34360;DHT22;20624;55.870;26.506;2023-01-19T21:12:09;0.50;99.90
34360;DHT22;20624;55.870;26.506;2023-01-19T21:14:39;0.60;99.90
34360;DHT22;20624;55.870;26.506;2023-01-19T21:17:11;0.60;99.90
34360;DHT22;20624;55.870;26.506;2023-01-19T21:19:39;0.60;99.90
34360;DHT22;20624;55.870;26.506;2023-01-19T21:22:06;0.70;99.90
34360;DHT22;20624;55.870;26.506;2023-01-19T21:24:34;0.70;99.90
34360;DHT22;20624;55.870;26.506;2023-01-19T21:29:34;0.70;99.90
34360;DHT22;20624;55.870;26.506;2023-01-19T21:32:05;0.70;99.90
34360;DHT22;20624;55.870;26.506;2023-01-19T21:34:35;0.80;99.90
34360;DHT22;20624;55.870;26.506;2023-01-19T21:37:02;0.80;99.90
34360;DHT22;20624;55.870;26.506;2023-01-19T21:39:36;0.80;99.90
34360;DHT22;20624;55.870;26.506;2023-01-19T21:42:06;0.80;99.90
34360;DHT22;20624;55.870;26.506;2023-01-19T21:44:33;0.90;99.90
34360;DHT22;20624;55.870;26.506;2023-01-19T21:47:03;0.90;99.90
34360;DHT22;20624;55.870;26.506;2023-01-19T21:49:36;0.90;99.90
34360;DHT22;20624;55.870;26.506;2023-01-19T21:52:03;0.90;99.90
34360;DHT22;20624;55.870;26.506;2023-01-19T21:54:31;0.90;99.90
34360;DHT22;20624;55.870;26.506;2023-01-19T21:57:01;0.90;99.90
34360;DHT22;20624;55.870;26.506;2023-01-19T21:59:29;0.80;99.90
34360;DHT22;20624;55.870;26.506;2023-01-19T22:01:58;0.80;99.90
34360;DHT22;20624;55.870;26.506;2023-01-19T22:04:28;1.30;99.90
34360;DHT22;20624;55.870;26.506;2023-01-19T22:06:56;0.80;99.90
34360;DHT22;20624;55.870;26.506;2023-01-19T22:11:51;0.60;99.90
34360;DHT22;20624;55.870;26.506;2023-01-19T22:14:21;0.70;99.90
34360;DHT22;20624;55.870;26.506;2023-01-19T22:16:51;-1.10;99.90
34360;DHT22;20624;55.870;26.506;2023-01-19T22:19:21;0.70;99.90
34360;DHT22;20624;55.870;26.506;2023-01-19T22:21:49;0.90;99.90
34360;DHT22;20624;55.870;26.506;2023-01-19T22:24:16;0.60;99.90
34360;DHT22;20624;55.870;26.506;2023-01-19T22:26:47;0.60;99.90
34360;DHT22;20624;55.870;26.506;2023-01-19T22:29:17;0.60;99.90
34360;DHT22;20624;55.870;26.506;2023-01-19T22:31:45;0.50;99.90
34360;DHT22;20624;55.870;26.506;2023-01-19T22:34:20;0.50;99.90
34360;DHT22;20624;55.870;26.506;2023-01-19T22:36:47;0.50;99.90
34360;DHT22;20624;55.870;26.506;2023-01-19T22:39:16;0.50;99.90
34360;DHT22;20624;55.870;26.506;2023-01-19T22:41:49;0.50;99.90
34360;DHT22;20624;55.870;26.506;2023-01-19T22:44:18;0.50;99.90
34360;DHT22;20624;55.870;26.506;2023-01-19T22:46:54;0.50;99.90
34360;DHT22;20624;55.870;26.506;2023-01-19T22:49:24;0.70;99.90
34360;DHT22;20624;55.870;26.506;2023-01-19T22:51:54;0.50;99.90
34360;DHT22;20624;55.870;26.506;2023-01-19T22:54:24;0.50;99.90
34360;DHT22;20624;55.870;26.506;2023-01-19T22:56:54;0.50;99.90
34360;DHT22;20624;55.870;26.506;2023-01-19T22:59:24;0.40;99.90
34360;DHT22;20624;55.870;26.506;2023-01-19T23:01:55;0.50;99.90
34360;DHT22;20624;55.870;26.506;2023-01-19T23:04:22;0.50;99.90
34360;DHT22;20624;55.870;26.506;2023-01-19T23:06:50;0.50;99.90
34360;DHT22;20624;55.870;26.506;2023-01-19T23:09:18;0.50;99.90
34360;DHT22;20624;55.870;26.506;2023-01-19T23:11:46;0.40;99.90
34360;DHT22;20624;55.870;26.506;2023-01-19T23:14:19;0.50;99.90
34360;DHT22;20624;55.870;26.506;2023-01-19T23:16:50;0.50;99.90
34360;DHT22;20624;55.870;26.506;2023-01-19T23:19:22;0.50;99.90
34360;DHT22;20624;55.870;26.506;2023-01-19T23:21:53;0.40;99.90
34360;DHT22;20624;55.870;26.506;2023-01-19T23:29:22;0.70;99.90
34360;DHT22;20624;55.870;26.506;2023-01-19T23:31:49;0.50;99.90
34360;DHT22;20624;55.870;26.506;2023-01-19T23:34:24;1.20;99.90
34360;DHT22;20624;55.870;26.506;2023-01-19T23:36:52;1.30;99.90
34360;DHT22;20624;55.870;26.506;2023-01-19T23:39:20;0.50;99.90
34360;DHT22;20624;55.870;26.506;2023-01-19T23:41:50;0.40;99.90
34360;DHT22;20624;55.870;26.506;2023-01-19T23:44:18;0.50;99.90
34360;DHT22;20624;55.870;26.506;2023-01-19T23:46:48;0.50;99.90
34360;DHT22;20624;55.870;26.506;2023-01-19T23:49:16;0.40;99.90
34360;DHT22;20624;55.870;26.506;2023-01-19T23:54:14;0.50;99.90
34360;DHT22;20624;55.870;26.506;2023-01-19T23:56:42;0.50;99.90
34360;DHT22;20624;55.870;26.506;2023-01-19T23:59:14;0.50;99.90
